Terminal Aerodrome Forecast
Issued by NWS

Home | Current Version | Previous Version | Text Only | Print | Product List | Glossary On
Versions: 1 2 3 4 5 6 7 8 9 10 11 12 13 14 15 16
000
FTUS45 KMSO 260712 AAA
TAFSMN
TAF AMD
KSMN 260712Z 2607/2706 VRB04KT 1SM BR SCT005
     FM261400 00000KT 4SM BR VCFG SCT004 SCT050
     FM261600 VRB03KT P6SM SCT100
      AMD LTD TO CLD VIS AND WIND=

USA.gov is the U.S. government's official web portal to all federal, state and local government web resources and services.